createdAt,value
2019-03-15T06:05:08.861Z,2.55
2019-03-15T06:08:11.944Z,2.77
2019-03-15T06:11:15.274Z,2.55
2019-03-15T06:14:18.796Z,2.77
2019-03-15T06:17:22.143Z,3.45
2019-03-15T06:20:25.433Z,2.60
2019-03-15T06:23:28.879Z,2.75
2019-03-15T06:26:32.195Z,3.02
2019-03-15T06:29:35.533Z,3.25
2019-03-15T06:32:38.827Z,3.22
2019-03-15T06:35:42.332Z,3.55
2019-03-15T06:38:45.606Z,3.42
2019-03-15T06:41:48.921Z,3.95
2019-03-15T06:44:57.947Z,3.50
2019-03-15T06:47:57.289Z,3.33
2019-03-15T06:51:00.598Z,3.20
2019-03-15T06:54:11.497Z,6.97
2019-03-15T06:57:08.950Z,3.15
2019-03-15T07:00:13.909Z,3.00
2019-03-15T07:03:17.268Z,3.67
2019-03-15T07:06:20.595Z,3.15
2019-03-15T07:09:23.893Z,3.33
2019-03-15T07:12:27.199Z,3.02
2019-03-15T07:15:30.522Z,3.20
2019-03-15T07:18:33.841Z,2.77
2019-03-15T07:21:37.149Z,3.12
2019-03-15T07:24:43.597Z,3.33
2019-03-15T07:27:45.718Z,3.25
2019-03-15T07:30:49.083Z,3.55
2019-03-15T07:33:52.394Z,2.70
2019-03-15T07:36:55.700Z,3.35
2019-03-15T07:39:59.017Z,3.47
2019-03-15T07:43:04.992Z,3.40
2019-03-15T07:46:07.392Z,5.62
2019-03-15T07:49:10.791Z,3.12
2019-03-15T07:52:14.123Z,3.45
2019-03-15T07:55:17.451Z,3.52
2019-03-15T07:58:20.826Z,4.03
2019-03-15T08:01:24.194Z,3.22
2019-03-15T08:04:28.052Z,4.85
2019-03-15T08:07:36.391Z,3.20
2019-03-15T08:10:36.412Z,4.00
2019-03-15T08:13:39.850Z,3.70
2019-03-15T08:16:43.187Z,3.58
2019-03-15T08:19:46.507Z,3.75
2019-03-15T08:22:49.872Z,4.15
2019-03-15T08:25:53.186Z,4.10
2019-03-15T08:28:56.536Z,3.90
2019-03-15T08:31:59.878Z,3.70
2019-03-15T08:35:04.335Z,4.15
2019-03-15T08:38:07.791Z,4.78
2019-03-15T08:41:11.111Z,5.20
2019-03-15T08:44:14.475Z,4.78
2019-03-15T08:47:17.775Z,4.87
2019-03-15T08:50:24.383Z,4.15
2019-03-15T08:53:26.202Z,4.17
2019-03-15T08:56:29.603Z,4.67
2019-03-15T08:59:32.933Z,5.00
2019-03-15T09:02:36.241Z,4.92
2019-03-15T09:05:39.620Z,4.28
2019-03-15T09:08:42.935Z,4.47
2019-03-15T09:11:46.275Z,4.28
2019-03-15T09:14:49.583Z,4.60
2019-03-15T09:17:52.976Z,4.65
2019-03-15T09:20:56.321Z,4.42
2019-03-15T09:23:59.631Z,3.58
2019-03-15T09:27:02.986Z,4.03
2019-03-15T09:30:22.627Z,3.80
2019-03-15T09:33:16.578Z,4.42
2019-03-15T09:36:19.889Z,3.95
2019-03-15T09:39:25.698Z,4.15
2019-03-15T09:42:29.024Z,4.08
2019-03-15T09:45:32.380Z,4.35
2019-03-15T09:48:35.700Z,3.87
2019-03-15T09:51:39.020Z,4.53
2019-03-15T09:54:42.328Z,3.75
2019-03-15T09:57:45.638Z,4.20
2019-03-15T10:00:48.980Z,3.20
2019-03-15T10:03:52.330Z,4.72
2019-03-15T10:06:55.629Z,3.40
2019-03-15T10:10:12.521Z,4.45
2019-03-15T10:13:06.102Z,3.60
2019-03-15T10:16:09.124Z,3.35
2019-03-15T10:19:12.439Z,3.40
2019-03-15T10:22:15.769Z,3.15
2019-03-15T10:25:19.093Z,3.47
2019-03-15T10:28:22.407Z,3.98
2019-03-15T10:31:26.817Z,3.92
2019-03-15T10:34:30.329Z,3.20
2019-03-15T10:37:33.637Z,2.72
2019-03-15T10:40:36.959Z,3.10
2019-03-15T10:43:40.265Z,3.02
2019-03-15T10:46:43.588Z,3.00
2019-03-15T10:49:46.895Z,3.05
2019-03-15T10:52:53.552Z,2.70
2019-03-15T10:56:00.501Z,2.62
2019-03-15T10:59:00.317Z,2.42
2019-03-15T11:02:03.799Z,2.58
2019-03-15T11:05:08.949Z,2.55
2019-03-15T11:08:12.240Z,2.67
2019-03-15T11:11:15.554Z,2.90
2019-03-15T11:14:18.852Z,2.10
2019-03-15T11:17:22.159Z,1.85
2019-03-15T11:20:25.562Z,2.00
2019-03-15T11:23:28.999Z,2.15
2019-03-15T11:26:32.368Z,1.70
2019-03-15T11:29:35.862Z,2.35
2019-03-15T11:32:41.789Z,2.05
2019-03-15T11:35:45.127Z,1.60
2019-03-15T11:38:48.434Z,1.82
2019-03-15T11:41:51.819Z,1.52
2019-03-15T11:44:55.080Z,1.45
2019-03-15T11:48:04.080Z,1.62
2019-03-15T11:51:05.916Z,1.42
2019-03-15T11:54:09.238Z,1.32
2019-03-15T11:57:12.550Z,1.52
2019-03-15T12:00:16.834Z,1.72
2019-03-15T12:03:20.184Z,1.30
2019-03-15T12:06:23.522Z,1.60
2019-03-15T12:09:26.821Z,1.35
2019-03-15T12:12:30.249Z,1.35
2019-03-15T12:15:36.144Z,1.42
2019-03-15T12:18:38.597Z,1.50
2019-03-15T12:21:41.937Z,1.80
2019-03-15T12:24:45.244Z,2.35
2019-03-15T12:27:48.576Z,2.22
2019-03-15T12:30:51.972Z,2.30
2019-03-15T12:33:55.305Z,2.20
2019-03-15T12:36:58.622Z,2.65
2019-03-15T12:40:01.933Z,2.85
2019-03-15T12:43:05.283Z,1.90
2019-03-15T12:46:08.621Z,2.00
2019-03-15T12:49:11.918Z,2.33
2019-03-15T12:52:15.228Z,1.72
2019-03-15T12:55:18.565Z,1.55
2019-03-15T12:58:23.161Z,1.67
2019-03-15T13:01:26.481Z,2.42
2019-03-15T13:04:29.806Z,2.00
2019-03-15T13:07:33.145Z,1.90
2019-03-15T13:10:36.479Z,1.62
2019-03-15T13:13:39.852Z,2.35
2019-03-15T13:16:44.787Z,1.72
2019-03-15T13:19:55.069Z,1.67
2019-03-15T13:22:53.161Z,1.45
2019-03-15T13:25:56.471Z,1.42
2019-03-15T13:28:59.816Z,1.60
2019-03-15T13:32:03.178Z,1.60
2019-03-15T13:35:08.828Z,3.52
2019-03-15T13:38:12.161Z,1.70
2019-03-15T13:41:15.499Z,2.15
2019-03-15T13:44:18.872Z,1.05
2019-03-15T13:47:22.155Z,1.20
2019-03-15T13:50:25.492Z,1.30
2019-03-15T13:53:28.791Z,1.20
2019-03-15T13:56:32.154Z,1.32
2019-03-15T13:59:35.448Z,1.30
2019-03-15T14:02:38.746Z,1.05
2019-03-15T14:05:42.048Z,1.00
2019-03-15T14:08:45.399Z,0.98
2019-03-15T14:11:48.718Z,1.10
2019-03-15T14:14:52.095Z,1.10
2019-03-15T14:17:55.395Z,0.90
2019-03-15T14:20:58.700Z,0.80
2019-03-15T14:24:02.013Z,1.00
2019-03-15T14:27:05.312Z,0.70
2019-03-15T14:30:11.169Z,0.78
2019-03-15T14:33:14.458Z,1.00
2019-03-15T14:36:18.250Z,0.93
2019-03-15T14:39:21.740Z,0.90
2019-03-15T14:42:25.012Z,1.10
2019-03-15T14:45:28.354Z,1.00
2019-03-15T14:48:31.622Z,1.00
2019-03-15T14:51:34.929Z,1.12
2019-03-15T14:54:50.221Z,1.05
2019-03-15T14:57:53.775Z,1.20
2019-03-15T15:00:57.129Z,1.20
2019-03-15T15:04:00.430Z,1.70
2019-03-15T15:07:03.804Z,1.60
2019-03-15T15:10:10.245Z,1.15
2019-03-15T15:13:13.588Z,1.32
2019-03-15T15:16:16.948Z,1.10
2019-03-15T15:19:20.396Z,1.00
2019-03-15T15:22:23.711Z,0.93
2019-03-15T15:25:27.062Z,1.02
2019-03-15T15:28:30.380Z,1.10
2019-03-15T15:31:33.793Z,1.00
2019-03-15T15:34:37.108Z,1.00
2019-03-15T15:37:40.431Z,0.85
2019-03-15T15:40:43.758Z,0.90
2019-03-15T15:43:47.066Z,1.00
2019-03-15T15:46:50.427Z,0.90
2019-03-15T15:49:53.745Z,0.80
2019-03-15T15:52:57.255Z,1.00
2019-03-15T15:56:00.552Z,0.98
2019-03-15T15:59:03.889Z,1.10
2019-03-15T16:02:08.621Z,1.00
2019-03-15T16:05:12.123Z,1.32
2019-03-15T16:08:15.644Z,1.40
2019-03-15T16:11:18.931Z,1.42
2019-03-15T16:14:22.280Z,1.35
2019-03-15T16:17:25.594Z,1.95
2019-03-15T16:20:28.920Z,2.17
2019-03-15T16:23:32.238Z,1.65
2019-03-15T16:26:35.672Z,1.45
2019-03-15T16:29:39.040Z,2.10
2019-03-15T16:32:42.371Z,1.72
2019-03-15T16:35:45.698Z,1.40
2019-03-15T16:38:49.073Z,1.40
2019-03-15T16:41:52.388Z,1.37
2019-03-15T16:44:55.716Z,1.75
2019-03-15T16:47:59.031Z,1.55
2019-03-15T16:51:02.381Z,1.32
2019-03-15T16:54:05.751Z,1.72
2019-03-15T16:57:09.043Z,1.07
2019-03-15T17:00:14.562Z,1.20
2019-03-15T17:03:17.993Z,1.62
2019-03-15T17:06:21.324Z,1.30
2019-03-15T17:09:24.666Z,1.47
2019-03-15T17:12:27.973Z,1.32
2019-03-15T17:15:31.474Z,1.37
2019-03-15T17:18:34.892Z,1.25
2019-03-15T17:21:38.243Z,1.47
2019-03-15T17:24:41.584Z,4.55
2019-03-15T17:27:44.906Z,1.98
2019-03-15T17:30:48.316Z,1.60
2019-03-15T17:33:51.630Z,2.20
2019-03-15T17:37:06.027Z,1.65
2019-03-15T17:39:59.996Z,1.20
2019-03-15T17:43:03.325Z,2.20
2019-03-15T17:46:06.636Z,1.82
2019-03-15T17:49:09.998Z,1.40
2019-03-15T17:52:13.334Z,1.77
2019-03-15T17:55:16.840Z,2.55
2019-03-15T17:58:20.130Z,1.32
2019-03-15T18:01:23.465Z,1.42
2019-03-15T18:04:26.790Z,1.42
2019-03-15T18:07:30.099Z,1.20
2019-03-15T18:10:33.416Z,1.20
2019-03-15T18:13:36.722Z,1.55
2019-03-15T18:16:40.049Z,1.45
2019-03-15T18:19:43.342Z,1.95
2019-03-15T18:22:46.717Z,2.55
2019-03-15T18:25:50.047Z,1.50
2019-03-15T18:28:53.364Z,1.40
2019-03-15T18:31:56.695Z,1.40
2019-03-15T18:34:59.987Z,1.17
2019-03-15T18:38:03.331Z,1.00
2019-03-15T18:41:06.686Z,1.45
2019-03-15T18:44:09.981Z,1.35
2019-03-15T18:47:13.370Z,1.40
2019-03-15T18:50:25.524Z,1.22
2019-03-15T18:53:28.913Z,2.62
2019-03-15T18:56:32.230Z,2.27
2019-03-15T18:59:40.094Z,1.30
2019-03-15T19:02:40.721Z,2.02
2019-03-15T19:05:44.031Z,1.95
2019-03-15T19:08:47.344Z,1.95
2019-03-15T19:11:50.647Z,1.98
2019-03-15T19:14:53.972Z,2.10
2019-03-15T19:17:57.321Z,2.20
2019-03-15T19:21:00.642Z,1.98
2019-03-15T19:24:04.043Z,1.75
2019-03-15T19:27:07.338Z,1.82
2019-03-15T19:30:15.880Z,1.98
2019-03-15T19:33:19.206Z,2.12
2019-03-15T19:36:22.560Z,1.87
2019-03-15T19:39:25.897Z,2.25
2019-03-15T19:42:29.182Z,1.98
2019-03-15T19:45:32.506Z,1.80
2019-03-15T19:48:35.835Z,1.75
2019-03-15T19:51:39.235Z,1.90
2019-03-15T19:54:42.541Z,2.10
2019-03-15T19:57:45.902Z,2.20
2019-03-15T20:00:49.307Z,2.12
2019-03-15T20:03:52.676Z,2.30
2019-03-15T20:06:56.048Z,1.70
2019-03-15T20:09:59.381Z,1.62
2019-03-15T20:13:02.970Z,1.70
2019-03-15T20:16:06.487Z,1.70
2019-03-15T20:19:09.809Z,2.27
2019-03-15T20:22:13.181Z,2.27
2019-03-15T20:25:17.086Z,1.80
2019-03-15T20:28:20.396Z,1.55
2019-03-15T20:31:23.779Z,1.47
2019-03-15T20:34:27.218Z,1.30
2019-03-15T20:37:30.827Z,1.98
2019-03-15T20:40:34.193Z,2.08
2019-03-15T20:43:37.654Z,1.57
2019-03-15T20:46:40.977Z,1.30
2019-03-15T20:49:44.322Z,1.55
2019-03-15T20:52:47.705Z,1.50
2019-03-15T20:55:52.710Z,1.42
2019-03-15T20:58:56.133Z,1.32
2019-03-15T21:01:59.481Z,1.25
2019-03-15T21:05:02.863Z,1.20
2019-03-15T21:08:07.860Z,1.32
2019-03-15T21:11:11.195Z,1.40
2019-03-15T21:14:14.495Z,1.62
2019-03-15T21:17:17.828Z,1.60
2019-03-15T21:20:22.837Z,1.82
2019-03-15T21:23:26.234Z,1.80
2019-03-15T21:26:29.573Z,1.72
2019-03-15T21:29:32.867Z,1.50
2019-03-15T21:32:36.191Z,1.20
2019-03-15T21:35:39.515Z,1.55
2019-03-15T21:38:48.164Z,1.60
2019-03-15T21:41:47.935Z,1.40
2019-03-15T21:44:51.287Z,1.42
2019-03-15T21:47:54.615Z,1.55
2019-03-15T21:50:58.836Z,1.60
2019-03-15T21:54:14.682Z,1.35
2019-03-15T21:57:21.825Z,1.62
2019-03-15T22:00:29.006Z,1.87
2019-03-15T22:03:40.614Z,2.10
2019-03-15T22:06:44.106Z,1.40
2019-03-15T22:09:47.449Z,1.47
2019-03-15T22:12:50.796Z,1.57
2019-03-15T22:15:54.087Z,1.42
2019-03-15T22:18:57.423Z,1.20
2019-03-15T22:22:00.760Z,1.45
2019-03-15T22:25:05.624Z,1.45
2019-03-15T22:28:09.137Z,1.55
2019-03-15T22:31:16.813Z,1.07
2019-03-15T22:34:17.804Z,1.60
2019-03-15T22:37:21.136Z,1.60
2019-03-15T22:40:26.122Z,1.70
2019-03-15T22:43:29.431Z,1.40
2019-03-15T22:46:32.733Z,2.00
2019-03-15T22:49:36.086Z,1.27
2019-03-15T22:52:39.419Z,1.80
2019-03-15T22:55:42.731Z,1.25
2019-03-15T22:58:46.065Z,1.47
2019-03-15T23:01:49.381Z,1.70
2019-03-15T23:04:52.713Z,1.70
2019-03-15T23:07:56.051Z,1.80
2019-03-15T23:10:59.396Z,1.62
2019-03-15T23:14:02.747Z,1.25
2019-03-15T23:17:06.272Z,1.65
2019-03-15T23:20:11.356Z,1.60
2019-03-15T23:23:23.923Z,1.77
2019-03-15T23:26:20.682Z,1.30
2019-03-15T23:29:24.008Z,1.77
2019-03-15T23:32:27.341Z,1.60
2019-03-15T23:35:30.669Z,1.55
2019-03-15T23:38:34.000Z,1.40
2019-03-15T23:41:37.300Z,1.60
2019-03-15T23:44:40.661Z,1.70
2019-03-15T23:47:44.192Z,1.98
2019-03-15T23:50:47.525Z,1.90
2019-03-15T23:53:50.862Z,1.95
2019-03-15T23:56:54.198Z,1.70
2019-03-15T23:59:57.519Z,2.00
